Time;durP1;ratioP1;P1;durP2;ratioP2;P2;SDS_P1;SDS_P2;PMS_P1;PMS_P2;Temp;Humidity;BMP_temperature;BMP_pressure;BME280_temperature;BME280_humidity;BME280_pressure;Samples;Min_cycle;Max_cycle;Signal;HPM_P1;HPM_P2
2022/12/12 00:02:22;;;;;;;0.70;0.70;;;-2.10;99.90;;;;;;5076489;28;20028;-77
2022/12/12 00:04:48;;;;;;;1.00;1.00;;;-2.20;99.90;;;;;;5099196;28;20111;-77
2022/12/12 00:07:13;;;;;;;0.60;0.60;;;-2.10;99.90;;;;;;5098948;28;20032;-77
2022/12/12 00:09:39;;;;;;;0.77;0.77;;;-2.00;99.90;;;;;;5098308;28;20396;-78
2022/12/12 00:12:05;;;;;;;0.60;0.60;;;-2.00;99.90;;;;;;5080177;28;20583;-78
2022/12/12 00:14:30;;;;;;;0.95;0.95;;;-2.00;99.90;;;;;;5078397;28;20142;-78
2022/12/12 00:16:56;;;;;;;0.70;0.70;;;-2.10;99.90;;;;;;5077442;28;20490;-77
2022/12/12 00:19:21;;;;;;;0.77;0.77;;;-2.10;99.90;;;;;;5079212;28;20028;-77
2022/12/12 00:21:47;;;;;;;0.63;0.63;;;-2.20;99.90;;;;;;5077822;28;20028;-78
2022/12/12 00:24:12;;;;;;;1.95;1.67;;;-2.30;99.90;;;;;;5078281;28;20390;-78
2022/12/12 00:26:38;;;;;;;0.75;0.75;;;-2.30;99.90;;;;;;5077395;28;20027;-77
2022/12/12 00:29:04;;;;;;;0.60;0.60;;;-2.40;99.90;;;;;;5077349;28;20025;-77
2022/12/12 00:31:30;;;;;;;0.68;0.68;;;-2.30;99.90;;;;;;5077307;28;20028;-76
2022/12/12 00:33:56;;;;;;;0.80;0.80;;;-2.30;99.90;;;;;;5077688;28;20074;-78
2022/12/12 00:36:24;;;;;;;2.25;2.15;;;-2.30;99.90;;;;;;5078077;28;20028;-77
2022/12/12 00:38:51;;;;;;;0.65;0.65;;;-2.30;99.90;;;;;;5078196;28;20038;-77
2022/12/12 00:41:17;;;;;;;0.68;0.68;;;-2.30;99.90;;;;;;5096250;28;20099;-78
2022/12/12 00:43:43;;;;;;;12.05;10.85;;;-2.30;99.90;;;;;;5106550;28;20020;-76
2022/12/12 00:46:13;;;;;;;0.70;0.70;;;-2.50;99.90;;;;;;5114916;28;20028;-75
2022/12/12 00:48:39;;;;;;;2.88;2.67;;;-2.40;99.90;;;;;;5115085;28;20016;-75
2022/12/12 00:51:08;;;;;;;0.70;0.70;;;-2.40;99.90;;;;;;5114530;28;20031;-76
2022/12/12 00:53:34;;;;;;;0.85;0.85;;;-2.30;99.90;;;;;;5114908;28;20091;-76
2022/12/12 00:56:00;;;;;;;0.70;0.70;;;-2.40;99.90;;;;;;5095580;28;20031;-76
2022/12/12 00:58:26;;;;;;;0.65;0.65;;;-2.40;99.90;;;;;;5094900;28;20020;-76
2022/12/12 01:00:52;;;;;;;2.65;2.55;;;-2.40;99.90;;;;;;5095352;28;20005;-76
2022/12/12 01:03:18;;;;;;;0.80;0.80;;;-2.40;99.90;;;;;;5102005;28;20587;-76
2022/12/12 01:05:44;;;;;;;1.38;1.38;;;-2.50;99.90;;;;;;5116617;28;20043;-76
2022/12/12 01:08:09;;;;;;;0.80;0.80;;;-2.50;99.90;;;;;;5113270;28;20206;-77
2022/12/12 01:10:35;;;;;;;0.70;0.70;;;-2.50;99.90;;;;;;5097674;28;20024;-77
2022/12/12 01:13:01;;;;;;;0.70;0.70;;;-2.50;99.90;;;;;;5093626;28;20097;-77
2022/12/12 01:15:27;;;;;;;0.70;0.70;;;-2.60;99.90;;;;;;5092433;28;20537;-77
2022/12/12 01:17:52;;;;;;;0.80;0.80;;;-2.70;99.90;;;;;;5092314;28;20094;-77
2022/12/12 01:20:25;;;;;;;1.00;1.00;;;-2.70;99.90;;;;;;5091449;28;20020;-77
2022/12/12 01:22:51;;;;;;;0.70;0.70;;;-2.70;99.90;;;;;;5093531;28;20031;-75
2022/12/12 01:25:18;;;;;;;0.80;0.80;;;-2.70;99.90;;;;;;5092848;28;20081;-75
2022/12/12 01:27:44;;;;;;;0.75;0.75;;;-2.70;99.90;;;;;;5091121;28;20031;-76
2022/12/12 01:30:12;;;;;;;0.93;0.93;;;-2.80;99.90;;;;;;5091417;28;20028;-76
2022/12/12 01:32:37;;;;;;;0.73;0.73;;;-2.90;99.90;;;;;;5092016;28;20020;-76
2022/12/12 01:35:07;;;;;;;0.80;0.80;;;-2.90;99.90;;;;;;5090825;28;20118;-76
2022/12/12 01:37:33;;;;;;;0.80;0.80;;;-2.90;99.90;;;;;;5090262;28;20020;-75
2022/12/12 01:39:59;;;;;;;0.75;0.75;;;-2.90;99.90;;;;;;5092157;28;20044;-79
2022/12/12 01:42:24;;;;;;;0.70;0.70;;;-2.90;99.90;;;;;;5094498;28;20024;-77
2022/12/12 01:44:51;;;;;;;1.83;1.80;;;-2.80;99.90;;;;;;5091411;28;20032;-78
2022/12/12 01:47:20;;;;;;;0.60;0.60;;;-2.90;99.90;;;;;;5091362;28;20024;-78
2022/12/12 01:49:51;;;;;;;3.10;3.00;;;-2.90;99.90;;;;;;5091906;28;20056;-75
2022/12/12 01:52:21;;;;;;;3.65;3.33;;;-2.90;99.90;;;;;;5091570;28;20482;-75
2022/12/12 01:54:53;;;;;;;0.75;0.75;;;-2.80;99.90;;;;;;5080427;28;20037;-77
2022/12/12 01:57:28;;;;;;;0.70;0.70;;;-2.90;99.90;;;;;;5071594;28;20035;-75
2022/12/12 01:59:54;;;;;;;;;;;-2.80;99.90;;;;;;5071765;28;20084;-76
2022/12/12 02:02:20;;;;;;;0.80;0.80;;;-3.00;99.90;;;;;;5069132;28;19989;-75
2022/12/12 02:04:46;;;;;;;0.80;0.80;;;-2.90;99.90;;;;;;5090068;28;20061;-76
2022/12/12 02:07:11;;;;;;;0.70;0.70;;;-3.00;99.90;;;;;;5091077;28;20039;-76
2022/12/12 02:09:38;;;;;;;0.95;0.95;;;-3.00;99.90;;;;;;5090200;28;20024;-76
2022/12/12 02:12:03;;;;;;;0.70;0.70;;;-3.10;99.90;;;;;;5086267;28;20029;-75
2022/12/12 02:14:33;;;;;;;0.70;0.70;;;-3.20;99.90;;;;;;5081992;28;20047;-75
2022/12/12 02:17:12;;;;;;;0.60;0.60;;;-3.10;99.90;;;;;;5091116;28;20020;-75
2022/12/12 02:19:59;;;;;;;0.77;0.77;;;-3.10;99.90;;;;;;5091623;28;20025;-75
2022/12/12 02:22:49;;;;;;;0.55;0.55;;;-3.10;99.90;;;;;;5091553;28;20466;-76
2022/12/12 02:25:26;;;;;;;0.80;0.80;;;-2.90;99.90;;;;;;5091331;28;20064;-74
2022/12/12 02:28:10;;;;;;;0.70;0.70;;;-3.00;99.90;;;;;;5087482;28;20021;-76
2022/12/12 02:30:46;;;;;;;0.80;0.80;;;-3.00;99.90;;;;;;5081363;28;20031;-75
2022/12/12 02:33:19;;;;;;;0.80;0.80;;;-2.90;99.90;;;;;;5093007;28;20084;-74
2022/12/12 02:36:03;;;;;;;0.70;0.70;;;-2.80;99.90;;;;;;5095030;28;20059;-75
2022/12/12 02:38:41;;;;;;;1.25;1.25;;;-2.80;99.90;;;;;;5094750;28;20020;-75
2022/12/12 02:41:37;;;;;;;0.90;0.90;;;-2.80;99.90;;;;;;5076908;28;20023;-75
2022/12/12 02:44:27;;;;;;;0.90;0.90;;;-2.80;99.90;;;;;;5072836;28;20127;-76
2022/12/12 02:47:01;;;;;;;0.80;0.80;;;-2.90;99.90;;;;;;5074489;28;20037;-77
2022/12/12 02:49:42;;;;;;;0.80;0.80;;;-2.90;99.90;;;;;;5095486;28;20070;-75
2022/12/12 02:52:10;;;;;;;1.05;1.05;;;-2.80;99.90;;;;;;5093320;28;20142;-76
2022/12/12 02:54:36;;;;;;;0.88;0.88;;;-2.80;99.90;;;;;;5086354;28;20035;-76
2022/12/12 02:57:02;;;;;;;0.70;0.70;;;-2.80;99.90;;;;;;5074047;28;20021;-76
2022/12/12 02:59:29;;;;;;;0.70;0.70;;;-2.80;99.90;;;;;;5074386;28;20047;-76
2022/12/12 03:02:29;;;;;;;0.73;0.73;;;-2.80;99.90;;;;;;5068168;28;20028;-76
2022/12/12 03:08:27;;;;;;;0.95;0.95;;;-3.00;99.90;;;;;;5094172;28;20027;-77
2022/12/12 03:11:19;;;;;;;1.58;1.58;;;-3.10;99.90;;;;;;5093027;28;20028;-76
2022/12/12 03:14:00;;;;;;;0.60;0.60;;;-3.00;99.90;;;;;;5089638;28;20119;-77
2022/12/12 03:16:35;;;;;;;0.70;0.70;;;-3.00;99.90;;;;;;5092887;28;20024;-76
2022/12/12 03:19:28;;;;;;;0.88;0.88;;;-3.00;99.90;;;;;;5094069;28;20478;-76
2022/12/12 03:22:12;;;;;;;2.25;1.90;;;-3.10;99.90;;;;;;5087540;28;20486;-75
2022/12/12 03:24:50;;;;;;;0.73;0.73;;;-3.00;99.90;;;;;;5074037;28;20393;-77
2022/12/12 03:27:39;;;;;;;0.70;0.70;;;-3.10;99.90;;;;;;5073815;28;20025;-76
2022/12/12 03:30:07;;;;;;;0.70;0.70;;;-3.10;99.90;;;;;;5073848;28;20055;-76
2022/12/12 03:32:39;;;;;;;0.70;0.70;;;-3.10;99.90;;;;;;5074417;28;20090;-76
2022/12/12 03:35:18;;;;;;;0.73;0.73;;;-3.20;99.90;;;;;;5094391;28;20024;-76
2022/12/12 03:38:07;;;;;;;0.60;0.60;;;-3.20;99.90;;;;;;5077093;28;20492;-76
2022/12/12 03:40:40;;;;;;;0.65;0.65;;;-3.20;99.90;;;;;;5073742;28;20032;-78
2022/12/12 03:43:13;;;;;;;0.60;0.60;;;-3.30;99.90;;;;;;5072344;28;20016;-77
2022/12/12 03:46:00;;;;;;;0.70;0.70;;;-3.40;99.90;;;;;;5060405;28;20479;-77
2022/12/12 03:48:49;;;;;;;0.80;0.80;;;-3.30;99.90;;;;;;5093437;28;20028;-77
2022/12/12 03:51:24;;;;;;;0.70;0.70;;;-3.20;99.90;;;;;;5093831;28;20103;-76
2022/12/12 03:54:02;;;;;;;0.98;0.98;;;-3.20;99.90;;;;;;5090221;28;20028;-76
2022/12/12 03:56:49;;;;;;;0.68;0.68;;;-3.30;99.90;;;;;;5073569;28;20556;-76
2022/12/12 04:00:12;;;;;;;0.70;0.70;;;-3.40;99.90;;;;;;5073254;28;20154;-75
2022/12/12 04:02:50;;;;;;;1.00;1.00;;;-3.40;99.90;;;;;;5071639;28;20028;-76
2022/12/12 04:06:25;;;;;;;1.08;1.08;;;-3.50;99.90;;;;;;5075288;28;20398;-76
2022/12/12 04:08:29;;;;;;;0.70;0.70;;;-3.50;99.90;;;;;;5072606;28;20033;-77
2022/12/12 04:13:58;;;;;;;0.77;0.77;;;-3.60;99.90;;;;;;5073315;28;20051;-77
2022/12/12 04:16:32;;;;;;;0.70;0.70;;;-3.70;99.90;;;;;;5073210;28;20024;-77
2022/12/12 04:19:12;;;;;;;0.57;0.57;;;-3.70;99.90;;;;;;5091785;28;20017;-78
2022/12/12 04:24:56;;;;;;;0.63;0.63;;;-4.00;99.90;;;;;;5073062;28;20085;-77
2022/12/12 04:27:27;;;;;;;0.70;0.70;;;-4.00;99.90;;;;;;5071210;28;20036;-78
2022/12/12 04:30:05;;;;;;;0.70;0.70;;;-3.90;99.90;;;;;;5072625;28;20021;-78
2022/12/12 04:32:37;;;;;;;2.30;2.20;;;-4.00;99.90;;;;;;5072428;28;20048;-77
2022/12/12 04:35:05;;;;;;;1.33;1.33;;;-4.00;99.90;;;;;;5071230;28;20066;-77
2022/12/12 04:37:37;;;;;;;0.60;0.60;;;-3.90;99.90;;;;;;5072201;28;20043;-77
2022/12/12 04:40:07;;;;;;;0.70;0.70;;;-4.10;99.90;;;;;;5072694;28;20029;-77
2022/12/12 04:42:39;;;;;;;0.70;0.70;;;-4.30;99.90;;;;;;5072449;28;20020;-77
2022/12/12 04:45:19;;;;;;;1.38;1.38;;;-4.20;99.90;;;;;;5073306;28;20086;-78
2022/12/12 04:47:48;;;;;;;0.65;0.65;;;-4.30;99.90;;;;;;5072039;28;20478;-77
2022/12/12 04:50:15;;;;;;;0.80;0.80;;;-4.20;99.90;;;;;;5071055;28;20547;-77
2022/12/12 04:52:42;;;;;;;0.70;0.70;;;-4.30;99.90;;;;;;5078645;28;20114;-77
2022/12/12 04:55:23;;;;;;;0.73;0.73;;;-4.40;99.90;;;;;;5077312;28;20402;-76
2022/12/12 04:57:52;;;;;;;0.63;0.63;;;-4.50;99.90;;;;;;5072143;28;20445;-76
2022/12/12 05:00:19;;;;;;;0.60;0.60;;;-4.40;99.90;;;;;;5085675;28;20028;-78
2022/12/12 05:02:56;;;;;;;0.63;0.63;;;-4.40;99.90;;;;;;5073395;28;20028;-77
2022/12/12 05:05:35;;;;;;;0.63;0.63;;;-4.40;99.90;;;;;;5092213;28;20024;-77
2022/12/12 05:08:04;;;;;;;1.15;1.15;;;-4.70;99.90;;;;;;5091979;28;20120;-77
2022/12/12 05:10:30;;;;;;;0.98;0.98;;;-4.60;99.90;;;;;;5092034;28;20059;-77
2022/12/12 05:12:58;;;;;;;1.77;1.63;;;-4.60;99.90;;;;;;5090827;28;20055;-76
2022/12/12 05:15:25;;;;;;;1.05;1.05;;;-4.70;99.90;;;;;;5091965;28;20482;-78
2022/12/12 05:17:59;;;;;;;0.60;0.60;;;-4.70;99.90;;;;;;5091661;28;20094;-76
2022/12/12 05:20:24;;;;;;;1.60;1.60;;;-4.60;99.90;;;;;;5091058;28;20031;-77
2022/12/12 05:22:50;;;;;;;1.60;1.60;;;-4.80;99.90;;;;;;5088747;28;20553;-76
2022/12/12 05:25:16;;;;;;;1.35;1.35;;;-4.90;99.90;;;;;;5072198;28;20487;-77
2022/12/12 05:27:41;;;;;;;6.30;5.93;;;-4.90;99.90;;;;;;5071699;28;20031;-77
2022/12/12 05:30:08;;;;;;;0.52;0.52;;;-5.00;99.90;;;;;;5071338;28;20433;-77
2022/12/12 05:32:33;;;;;;;0.70;0.70;;;-4.80;99.90;;;;;;5072788;28;20394;-76
2022/12/12 05:34:59;;;;;;;0.80;0.80;;;-4.80;99.90;;;;;;5072173;28;20103;-78
2022/12/12 05:37:24;;;;;;;0.60;0.60;;;-4.60;99.90;;;;;;5070658;28;20065;-78
2022/12/12 05:39:50;;;;;;;0.70;0.70;;;-4.70;99.90;;;;;;5073118;28;20052;-78
2022/12/12 05:42:15;;;;;;;2.35;2.25;;;-4.80;99.90;;;;;;5074710;28;20013;-78
2022/12/12 05:44:41;;;;;;;0.70;0.70;;;-4.80;99.90;;;;;;5080728;28;20039;-78
2022/12/12 05:47:07;;;;;;;0.60;0.60;;;-4.80;99.90;;;;;;5069580;28;20024;-77
2022/12/12 05:49:32;;;;;;;0.68;0.68;;;-4.80;99.90;;;;;;5063625;28;20194;-76
2022/12/12 05:51:58;;;;;;;0.90;0.90;;;-4.70;99.90;;;;;;5071058;28;20017;-76
2022/12/12 05:54:23;;;;;;;2.25;2.15;;;-4.50;99.90;;;;;;5071214;28;20122;-76
2022/12/12 05:56:49;;;;;;;1.02;1.02;;;-4.50;99.90;;;;;;5068531;28;20048;-75
2022/12/12 05:59:15;;;;;;;0.65;0.65;;;-4.50;99.90;;;;;;5063963;28;20016;-76
2022/12/12 06:01:40;;;;;;;0.70;0.70;;;-4.50;99.90;;;;;;5069679;28;20029;-76
2022/12/12 06:04:06;;;;;;;0.80;0.80;;;-4.50;99.90;;;;;;5067705;28;20427;-76
2022/12/12 06:06:32;;;;;;;0.90;0.90;;;-4.40;99.90;;;;;;5073086;28;20025;-78
2022/12/12 06:08:58;;;;;;;6.95;6.57;;;-4.40;99.90;;;;;;5081549;28;20055;-78
2022/12/12 06:11:23;;;;;;;0.73;0.73;;;-4.70;99.90;;;;;;5095570;28;20024;-78
2022/12/12 06:13:49;;;;;;;0.88;0.88;;;-4.60;99.90;;;;;;5097232;28;20030;-78
2022/12/12 06:16:16;;;;;;;0.60;0.60;;;-4.50;99.90;;;;;;5094927;28;20107;-78
2022/12/12 06:18:42;;;;;;;0.85;0.85;;;-4.50;99.90;;;;;;5095847;28;20431;-78
2022/12/12 06:21:11;;;;;;;1.85;1.85;;;-4.50;99.90;;;;;;5088942;28;20065;-77
2022/12/12 06:23:38;;;;;;;2.05;1.95;;;-4.70;99.90;;;;;;5074119;28;20668;-78
2022/12/12 06:26:05;;;;;;;0.90;0.90;;;-5.00;99.90;;;;;;5077295;28;20103;-76
2022/12/12 06:28:31;;;;;;;3.42;3.13;;;-5.30;99.90;;;;;;5076862;28;20056;-77
2022/12/12 06:30:57;;;;;;;0.57;0.57;;;-5.20;99.90;;;;;;5074143;28;20045;-79
2022/12/12 06:33:22;;;;;;;0.70;0.70;;;-5.30;99.90;;;;;;5076622;28;20028;-80
2022/12/12 06:35:59;;;;;;;1.95;1.95;;;-5.20;99.90;;;;;;5074484;28;20135;-78
2022/12/12 06:38:24;;;;;;;1.90;1.80;;;-5.20;99.90;;;;;;5077471;28;20021;-78
2022/12/12 06:40:50;;;;;;;0.85;0.85;;;-5.30;99.90;;;;;;5067231;28;20024;-78
2022/12/12 06:43:15;;;;;;;1.13;1.13;;;-5.30;99.90;;;;;;5078405;28;20035;-76
2022/12/12 06:45:41;;;;;;;2.55;2.45;;;-5.40;99.90;;;;;;5088245;28;20027;-78
2022/12/12 06:48:06;;;;;;;1.00;1.00;;;-5.30;99.90;;;;;;5075008;28;20056;-77
2022/12/12 06:50:32;;;;;;;0.60;0.60;;;-5.20;99.90;;;;;;5076155;28;20016;-77
2022/12/12 06:52:57;;;;;;;1.95;1.85;;;-5.00;99.90;;;;;;5075665;28;20592;-76
2022/12/12 06:55:23;;;;;;;1.98;1.88;;;-4.90;99.90;;;;;;5075220;28;20432;-78
2022/12/12 06:57:48;;;;;;;0.85;0.85;;;-4.80;99.90;;;;;;5075074;28;20016;-78
2022/12/12 07:00:15;;;;;;;1.20;1.20;;;-4.90;99.90;;;;;;5075385;28;20081;-77
2022/12/12 07:02:40;;;;;;;6.13;5.78;;;-4.90;99.90;;;;;;5074679;28;20024;-78
2022/12/12 07:05:06;;;;;;;3.88;3.70;;;-4.90;99.90;;;;;;5075370;28;20031;-77
2022/12/12 07:07:32;;;;;;;1.05;1.02;;;-4.80;99.90;;;;;;5084778;28;20498;-78
2022/12/12 07:09:58;;;;;;;2.50;2.40;;;-4.90;99.90;;;;;;5093848;28;20122;-78
2022/12/12 07:12:23;;;;;;;0.80;0.80;;;-4.80;99.90;;;;;;5074484;28;20574;-77
2022/12/12 07:14:49;;;;;;;1.05;1.05;;;-4.90;99.90;;;;;;5074607;28;20029;-78
2022/12/12 07:17:14;;;;;;;0.60;0.60;;;-5.00;99.90;;;;;;5075473;28;20021;-77
2022/12/12 07:19:40;;;;;;;0.88;0.88;;;-5.00;99.90;;;;;;5075645;28;20021;-77
2022/12/12 07:22:05;;;;;;;3.25;3.05;;;-5.00;99.90;;;;;;5094971;28;20089;-78
2022/12/12 07:24:31;;;;;;;0.70;0.70;;;-5.00;99.90;;;;;;5091533;28;20024;-78
2022/12/12 07:26:56;;;;;;;2.42;2.03;;;-5.10;99.90;;;;;;5093716;28;20028;-78
2022/12/12 07:29:22;;;;;;;0.75;0.75;;;-5.10;99.90;;;;;;5081071;28;20040;-77
2022/12/12 07:31:47;;;;;;;1.88;1.88;;;-5.10;99.90;;;;;;5075429;28;20043;-78
2022/12/12 07:34:13;;;;;;;0.75;0.75;;;-5.10;99.90;;;;;;5076109;28;20380;-78
2022/12/12 07:36:39;;;;;;;0.63;0.63;;;-5.00;99.90;;;;;;5088167;28;20025;-77
2022/12/12 07:39:04;;;;;;;1.92;1.92;;;-5.00;99.90;;;;;;5075779;28;20054;-78
2022/12/12 07:41:30;;;;;;;2.92;1.98;;;-5.10;99.90;;;;;;5086053;28;20070;-77
2022/12/12 07:43:55;;;;;;;1.20;1.20;;;-5.20;99.90;;;;;;5072100;28;20482;-77
2022/12/12 07:46:24;;;;;;;0.60;0.60;;;-5.20;99.90;;;;;;5072106;28;20390;-77
2022/12/12 07:48:50;;;;;;;0.80;0.80;;;-5.20;99.90;;;;;;5071752;28;20020;-77
2022/12/12 07:51:16;;;;;;;2.58;2.47;;;-5.10;99.90;;;;;;5081238;28;20502;-77
2022/12/12 07:53:42;;;;;;;0.90;0.90;;;-5.00;99.90;;;;;;5092475;28;20031;-77
2022/12/12 07:56:10;;;;;;;1.85;1.75;;;-5.00;99.90;;;;;;5071878;28;20025;-77
2022/12/12 07:58:36;;;;;;;1.15;1.15;;;-4.90;99.90;;;;;;5070948;28;20394;-77
2022/12/12 08:01:08;;;;;;;1.30;1.30;;;-5.20;99.90;;;;;;5071527;28;20021;-77
2022/12/12 08:03:34;;;;;;;0.60;0.60;;;-5.30;99.90;;;;;;5082894;28;20057;-77
2022/12/12 08:06:02;;;;;;;0.73;0.73;;;-5.10;99.90;;;;;;5093301;28;20068;-77
2022/12/12 08:08:27;;;;;;;1.77;1.77;;;-5.00;99.90;;;;;;5091864;28;20023;-77
2022/12/12 08:10:53;;;;;;;0.70;0.70;;;-5.10;99.90;;;;;;5093713;28;20165;-77
2022/12/12 08:13:18;;;;;;;0.80;0.80;;;-5.00;99.90;;;;;;5093392;28;20047;-77
2022/12/12 08:15:44;;;;;;;0.68;0.68;;;-5.00;99.90;;;;;;5091760;28;20047;-77
2022/12/12 08:18:09;;;;;;;1.05;1.05;;;-4.90;99.90;;;;;;5090992;28;20023;-78
2022/12/12 08:20:38;;;;;;;1.00;1.00;;;-4.90;99.90;;;;;;5093041;28;20103;-77
2022/12/12 08:23:04;;;;;;;0.68;0.68;;;-4.70;99.90;;;;;;5092978;28;20024;-77
2022/12/12 08:25:30;;;;;;;0.70;0.70;;;-4.60;99.90;;;;;;5093452;28;20035;-78
2022/12/12 08:27:56;;;;;;;0.70;0.70;;;-4.60;99.90;;;;;;5077570;28;20024;-77
2022/12/12 08:30:21;;;;;;;0.80;0.80;;;-4.80;99.90;;;;;;5081640;28;20429;-77
2022/12/12 08:32:47;;;;;;;1.67;1.67;;;-4.80;99.90;;;;;;5094247;28;20081;-77
2022/12/12 08:35:12;;;;;;;0.70;0.70;;;-4.80;99.90;;;;;;5093122;28;20093;-77
2022/12/12 08:37:38;;;;;;;2.67;2.08;;;-4.80;99.90;;;;;;5090923;28;20022;-77
2022/12/12 08:40:04;;;;;;;0.77;0.77;;;-4.90;99.90;;;;;;5091148;28;20034;-77
2022/12/12 08:42:30;;;;;;;0.68;0.68;;;-4.90;99.90;;;;;;5091041;28;20473;-77
2022/12/12 08:44:55;;;;;;;2.08;2.00;;;-4.90;99.90;;;;;;5091216;28;20073;-77
2022/12/12 08:47:21;;;;;;;0.80;0.80;;;-4.90;99.90;;;;;;5092383;28;21322;-77
2022/12/12 08:49:46;;;;;;;0.75;0.75;;;-4.90;99.90;;;;;;5085817;28;20471;-77
2022/12/12 08:52:12;;;;;;;0.98;0.98;;;-4.80;99.90;;;;;;5073918;28;20047;-78
2022/12/12 08:54:37;;;;;;;0.68;0.68;;;-4.80;99.90;;;;;;5073839;28;20059;-77
2022/12/12 08:57:03;;;;;;;0.70;0.70;;;-4.80;99.90;;;;;;5087569;28;20020;-77
2022/12/12 08:59:29;;;;;;;1.65;1.65;;;-4.70;99.90;;;;;;5093789;28;20038;-76
2022/12/12 09:01:54;;;;;;;1.75;1.65;;;-4.60;99.90;;;;;;5080585;28;20555;-76
2022/12/12 09:04:20;;;;;;;2.05;1.95;;;-4.60;99.90;;;;;;5094229;28;20028;-78
2022/12/12 09:06:46;;;;;;;0.63;0.63;;;-4.60;99.90;;;;;;5080071;28;20036;-77
2022/12/12 09:09:11;;;;;;;0.90;0.90;;;-4.50;99.90;;;;;;5085429;28;20033;-76
2022/12/12 09:11:37;;;;;;;0.70;0.70;;;-4.40;99.90;;;;;;5066375;28;20025;-77
2022/12/12 09:14:03;;;;;;;0.70;0.70;;;-4.20;99.90;;;;;;5069626;28;20325;-77
2022/12/12 09:16:28;;;;;;;0.77;0.77;;;-4.00;99.90;;;;;;5071376;28;20107;-77
2022/12/12 09:18:54;;;;;;;0.82;0.82;;;-4.00;99.90;;;;;;5070648;28;20116;-78
2022/12/12 09:21:20;;;;;;;0.80;0.80;;;-3.90;99.90;;;;;;5071666;28;20009;-77
2022/12/12 09:23:47;;;;;;;0.80;0.80;;;-3.90;99.90;;;;;;5066253;28;20024;-77
2022/12/12 09:26:12;;;;;;;0.70;0.70;;;-3.90;99.90;;;;;;5070163;28;20108;-77
2022/12/12 09:28:38;;;;;;;1.02;1.02;;;-3.80;99.90;;;;;;5071127;28;20075;-77
2022/12/12 09:31:10;;;;;;;1.13;1.13;;;-3.80;99.90;;;;;;5084402;28;20031;-77
2022/12/12 09:33:35;;;;;;;4.53;4.22;;;-3.80;99.90;;;;;;5091579;28;20024;-77
2022/12/12 09:36:04;;;;;;;1.00;1.00;;;-3.80;99.90;;;;;;5090312;28;20031;-77
2022/12/12 09:38:31;;;;;;;0.80;0.80;;;-3.80;99.90;;;;;;5090778;28;20016;-78
2022/12/12 09:41:09;;;;;;;0.60;0.60;;;-3.70;99.90;;;;;;5090966;28;20389;-77
2022/12/12 09:43:48;;;;;;;1.13;1.13;;;-3.70;99.90;;;;;;5090280;28;20016;-77
2022/12/12 09:46:36;;;;;;;0.90;0.90;;;-3.60;99.90;;;;;;5091580;28;20064;-77
2022/12/12 09:49:48;;;;;;;0.57;0.57;;;-3.60;99.90;;;;;;5090859;28;20023;-77
2022/12/12 09:52:27;;;;;;;1.40;1.27;;;-3.50;99.90;;;;;;5089895;28;20040;-77
2022/12/12 09:54:53;;;;;;;0.80;0.80;;;-3.40;99.90;;;;;;5080066;28;20029;-77
2022/12/12 09:57:43;;;;;;;0.90;0.90;;;-3.50;99.90;;;;;;5066447;28;20021;-77
2022/12/12 10:00:13;;;;;;;1.20;1.20;;;-3.40;99.90;;;;;;5062957;28;20021;-77
2022/12/12 10:02:54;;;;;;;1.08;1.08;;;-3.20;99.90;;;;;;5078317;28;20029;-77
2022/12/12 10:05:38;;;;;;;1.10;1.10;;;-3.20;99.90;;;;;;5080446;28;20070;-78
2022/12/12 10:08:44;;;;;;;0.70;0.70;;;-3.10;99.90;;;;;;5055614;28;20021;-77
2022/12/12 10:14:01;;;;;;;1.10;1.10;;;-3.20;99.90;;;;;;5009347;28;20611;-78
2022/12/12 10:16:29;;;;;;;0.70;0.70;;;-3.30;99.90;;;;;;5050665;28;20051;-79
2022/12/12 10:19:05;;;;;;;1.02;1.02;;;-3.20;99.90;;;;;;5069337;28;20467;-78
2022/12/12 10:21:33;;;;;;;1.30;1.30;;;-3.10;99.90;;;;;;5065110;22;20052;-75
2022/12/12 10:24:11;;;;;;;0.80;0.80;;;-3.10;99.90;;;;;;5051217;28;20432;-76
2022/12/12 10:26:38;;;;;;;1.73;1.65;;;-3.00;99.90;;;;;;5033335;28;20029;-76
2022/12/12 10:29:18;;;;;;;2.38;2.25;;;-3.00;99.90;;;;;;5032847;28;20025;-76
2022/12/12 10:32:09;;;;;;;0.77;0.77;;;-3.00;99.90;;;;;;5037326;28;20028;-76
2022/12/12 10:35:00;;;;;;;0.80;0.80;;;-2.90;99.90;;;;;;5051037;28;20033;-75
2022/12/12 10:38:04;;;;;;;0.70;0.70;;;-2.90;99.90;;;;;;5033233;28;20035;-76
2022/12/12 10:40:57;;;;;;;0.88;0.88;;;-2.90;99.90;;;;;;5051178;28;20092;-76
2022/12/12 10:43:33;;;;;;;3.17;3.08;;;-2.80;99.90;;;;;;5033541;28;20063;-74
2022/12/12 10:46:08;;;;;;;0.70;0.70;;;-2.80;99.90;;;;;;5031591;28;20059;-76
2022/12/12 10:48:34;;;;;;;0.90;0.90;;;-2.70;99.90;;;;;;5042166;28;20076;-76
2022/12/12 10:51:03;;;;;;;0.90;0.90;;;-2.70;99.90;;;;;;5033130;28;20037;-77
2022/12/12 10:53:30;;;;;;;0.80;0.80;;;-2.60;99.90;;;;;;5033907;28;20024;-75
2022/12/12 10:55:58;;;;;;;1.00;1.00;;;-2.50;99.90;;;;;;5036714;28;20025;-76
2022/12/12 10:58:26;;;;;;;0.60;0.60;;;-2.50;99.90;;;;;;5036748;28;20024;-76
2022/12/12 11:01:00;;;;;;;0.75;0.75;;;-2.50;99.90;;;;;;5054659;28;20028;-76
2022/12/12 11:03:31;;;;;;;0.60;0.60;;;-2.50;99.90;;;;;;5054535;28;20509;-76
2022/12/12 11:06:01;;;;;;;0.60;0.60;;;-2.40;99.90;;;;;;5054503;28;20486;-74
2022/12/12 11:08:29;;;;;;;0.80;0.80;;;-2.40;99.90;;;;;;5051206;28;20057;-74
2022/12/12 11:11:02;;;;;;;0.88;0.88;;;-2.40;99.90;;;;;;5054219;28;20025;-74
2022/12/12 11:13:28;;;;;;;1.85;1.85;;;-2.40;99.90;;;;;;5051555;28;20052;-74
2022/12/12 11:16:05;;;;;;;1.08;1.08;;;-2.40;99.90;;;;;;5036236;28;20025;-75
2022/12/12 11:18:31;;;;;;;0.70;0.70;;;-2.30;99.90;;;;;;5036070;28;20036;-71
2022/12/12 11:21:07;;;;;;;9.40;6.10;;;-2.20;99.90;;;;;;5053891;28;20033;-74
2022/12/12 11:23:35;;;;;;;0.90;0.90;;;-2.20;99.90;;;;;;5036132;28;20025;-74
2022/12/12 11:26:04;;;;;;;2.88;2.70;;;-2.20;99.90;;;;;;5035822;28;20020;-74
2022/12/12 11:28:34;;;;;;;0.70;0.70;;;-2.10;99.90;;;;;;5047736;28;20393;-73
2022/12/12 11:31:05;;;;;;;0.70;0.70;;;-2.10;99.90;;;;;;5035797;28;20114;-74
2022/12/12 11:33:53;;;;;;;0.80;0.80;;;-2.10;99.90;;;;;;5035953;28;20079;-74
2022/12/12 11:36:36;;;;;;;0.70;0.70;;;-1.90;99.90;;;;;;5052971;28;20116;-75
2022/12/12 11:39:13;;;;;;;0.80;0.80;;;-1.80;99.90;;;;;;5047408;28;20036;-73
2022/12/12 11:42:05;;;;;;;0.85;0.85;;;-1.70;99.90;;;;;;5053166;28;20021;-73
2022/12/12 11:44:35;;;;;;;2.08;1.95;;;-1.50;99.90;;;;;;5031979;28;20124;-74
2022/12/12 11:47:21;;;;;;;2.80;1.75;;;-1.50;99.90;;;;;;5035448;28;20135;-74
2022/12/12 11:49:56;;;;;;;22.23;2.85;;;-1.70;99.90;;;;;;5032237;28;20517;-74
2022/12/12 11:52:32;;;;;;;0.60;0.60;;;-1.60;99.90;;;;;;5053281;28;20029;-75
2022/12/12 11:54:59;;;;;;;0.60;0.60;;;-1.60;99.90;;;;;;5035249;28;20048;-75
2022/12/12 11:57:52;;;;;;;0.60;0.60;;;-1.80;99.90;;;;;;5051448;28;20491;-74
2022/12/12 12:00:23;;;;;;;0.90;0.90;;;-1.60;99.90;;;;;;5035326;28;20055;-74
2022/12/12 12:02:51;;;;;;;0.60;0.60;;;-1.60;99.90;;;;;;5035399;28;20027;-74
2022/12/12 12:05:44;;;;;;;0.60;0.60;;;-1.60;99.90;;;;;;5053499;28;20025;-74
2022/12/12 12:08:34;;;;;;;0.90;0.90;;;-1.30;99.90;;;;;;5052915;28;20027;-74
2022/12/12 12:11:08;;;;;;;2.58;2.47;;;-1.20;99.90;;;;;;5053390;28;20108;-76
2022/12/12 12:13:50;;;;;;;0.60;0.60;;;-1.10;99.90;;;;;;5053057;28;20032;-76
2022/12/12 12:16:54;;;;;;;0.60;0.60;;;-1.10;99.90;;;;;;5035441;28;20389;-75
2022/12/12 12:19:46;;;;;;;0.65;0.65;;;-1.10;99.90;;;;;;5006953;28;20037;-73
2022/12/12 12:22:45;;;;;;;0.70;0.70;;;-1.00;99.90;;;;;;5034508;28;20025;-73
2022/12/12 12:25:18;;;;;;;0.52;0.52;;;-1.00;99.90;;;;;;5047923;28;20052;-73
2022/12/12 12:28:05;;;;;;;0.80;0.80;;;-1.00;99.90;;;;;;5052390;28;20047;-73
2022/12/12 12:30:52;;;;;;;0.80;0.80;;;-1.00;99.90;;;;;;5052355;28;20530;-74
2022/12/12 12:33:34;;;;;;;0.70;0.70;;;-1.10;99.90;;;;;;5052407;28;20100;-74
2022/12/12 12:36:06;;;;;;;3.50;3.20;;;-1.10;99.90;;;;;;5052922;28;20138;-74
2022/12/12 12:38:40;;;;;;;0.60;0.60;;;-1.20;99.90;;;;;;5052536;28;20025;-74
2022/12/12 12:41:25;;;;;;;0.93;0.93;;;-1.30;99.90;;;;;;5034825;28;20025;-75
2022/12/12 12:44:08;;;;;;;1.20;1.13;;;-1.40;99.90;;;;;;5052730;28;20104;-74
2022/12/12 12:46:48;;;;;;;0.60;0.60;;;-1.30;99.90;;;;;;5034647;28;20017;-75
2022/12/12 12:49:19;;;;;;;0.70;0.70;;;-1.40;99.90;;;;;;5052676;28;20017;-73
2022/12/12 12:51:52;;;;;;;0.70;0.70;;;-1.30;99.90;;;;;;5052582;28;20025;-74
2022/12/12 12:54:24;;;;;;;0.60;0.60;;;-1.30;99.90;;;;;;5052579;28;20079;-74
2022/12/12 12:56:57;;;;;;;0.60;0.60;;;-1.30;99.90;;;;;;5034483;28;20389;-72
2022/12/12 12:59:28;;;;;;;0.68;0.68;;;-1.20;99.90;;;;;;5040093;28;20020;-74
2022/12/12 13:01:56;;;;;;;0.60;0.60;;;-1.30;99.90;;;;;;5034292;28;20017;-74
2022/12/12 13:04:30;;;;;;;11.18;7.88;;;-1.20;99.90;;;;;;5052378;28;20475;-73
2022/12/12 13:07:37;;;;;;;0.70;0.70;;;-1.00;99.90;;;;;;5052148;28;20037;-75
2022/12/12 13:10:09;;;;;;;0.60;0.60;;;-1.20;99.90;;;;;;5003309;28;20076;-73
2022/12/12 13:12:43;;;;;;;0.60;0.60;;;-1.50;99.90;;;;;;5034355;28;20136;-76
2022/12/12 13:15:28;;;;;;;1.05;1.05;;;-1.50;99.90;;;;;;5052070;28;20029;-76
2022/12/12 13:18:08;;;;;;;0.63;0.63;;;-1.40;99.90;;;;;;5051523;28;20029;-73
2022/12/12 13:21:03;;;;;;;0.70;0.70;;;-1.40;99.90;;;;;;5022909;28;20047;-73
2022/12/12 13:23:47;;;;;;;0.70;0.70;;;-1.20;99.90;;;;;;5052085;28;20017;-73
2022/12/12 13:26:50;;;;;;;0.50;0.50;;;-1.20;99.90;;;;;;5029210;28;20086;-76